createdAt,value
2022-12-24T00:00:07.767Z,97744.84
2022-12-24T00:02:34.918Z,97756.75
2022-12-24T00:05:01.811Z,97756.78
2022-12-24T00:07:28.650Z,97761.09
2022-12-24T00:09:55.164Z,97758.72
2022-12-24T00:12:22.183Z,97757.44
2022-12-24T00:14:48.721Z,97763.28
2022-12-24T00:17:15.363Z,97756.50
2022-12-24T00:19:43.327Z,97749.22
2022-12-24T00:22:15.864Z,97743.69
2022-12-24T00:24:42.411Z,97761.41
2022-12-24T00:27:11.903Z,97768.34
2022-12-24T00:29:38.412Z,97770.28
2022-12-24T00:32:08.214Z,97770.03
2022-12-24T00:34:36.141Z,97762.59
2022-12-24T00:37:06.123Z,97775.56
2022-12-24T00:39:33.095Z,97772.41
2022-12-24T00:41:59.621Z,97780.88
2022-12-24T00:44:26.459Z,97783.47
2022-12-24T00:46:53.018Z,97786.75
2022-12-24T00:49:19.566Z,97782.19
2022-12-24T00:51:46.404Z,97785.84
2022-12-24T00:54:13.192Z,97782.94
2022-12-24T00:56:39.725Z,97784.69
2022-12-24T00:59:06.254Z,97797.44
2022-12-24T01:01:32.837Z,97797.50
2022-12-24T01:04:18.050Z,97797.63
2022-12-24T01:06:44.598Z,97808.22
2022-12-24T01:09:11.360Z,97819.44
2022-12-24T01:11:37.902Z,97815.00
2022-12-24T01:14:04.418Z,97822.81
2022-12-24T01:16:31.010Z,97819.81
2022-12-24T01:18:57.595Z,97829.19
2022-12-24T01:21:24.156Z,97845.94
2022-12-24T01:23:50.647Z,97846.06
2022-12-24T01:26:17.178Z,97843.41
2022-12-24T01:28:43.697Z,97867.38
2022-12-24T01:31:11.159Z,97880.38
2022-12-24T01:33:37.728Z,97878.38
2022-12-24T01:36:04.334Z,97889.34
2022-12-24T01:38:30.894Z,97883.75
2022-12-24T01:41:16.348Z,97906.91
2022-12-24T01:43:43.016Z,97900.81
2022-12-24T01:46:14.900Z,97908.25
2022-12-24T01:48:43.001Z,97912.84
2022-12-24T01:51:29.726Z,97927.25
2022-12-24T01:53:58.025Z,97923.75
2022-12-24T01:56:24.663Z,97929.91
2022-12-24T01:58:52.240Z,97924.97
2022-12-24T02:01:18.821Z,97936.66
2022-12-24T02:03:45.510Z,97948.25
2022-12-24T02:06:12.471Z,97962.47
2022-12-24T02:08:42.103Z,97967.94
2022-12-24T02:11:15.930Z,97962.13
2022-12-24T02:13:43.022Z,97958.22
2022-12-24T02:16:15.667Z,97960.00
2022-12-24T02:19:11.771Z,97958.19
2022-12-24T02:21:48.640Z,97954.38
2022-12-24T02:24:21.886Z,97950.28
2022-12-24T02:26:57.636Z,97932.72
2022-12-24T02:29:33.049Z,97958.03
2022-12-24T02:32:03.911Z,97970.09
2022-12-24T02:34:36.696Z,97978.53
2022-12-24T02:37:11.464Z,97981.34
2022-12-24T02:39:48.684Z,97979.69
2022-12-24T02:42:16.030Z,97974.53
2022-12-24T02:44:50.247Z,97977.69
2022-12-24T02:47:17.184Z,97978.53
2022-12-24T02:49:44.580Z,97980.84
2022-12-24T02:52:29.818Z,97983.50
2022-12-24T02:54:56.773Z,97993.25
2022-12-24T02:57:27.977Z,98000.53
2022-12-24T02:59:59.553Z,97991.56
2022-12-24T03:02:28.989Z,97993.25
2022-12-24T03:04:55.598Z,97990.41
2022-12-24T03:07:25.251Z,97990.63
2022-12-24T03:10:06.816Z,97997.38
2022-12-24T03:12:36.147Z,97992.09
2022-12-24T03:15:03.016Z,97996.22
2022-12-24T03:17:31.991Z,97989.75
2022-12-24T03:19:58.503Z,97993.38
2022-12-24T03:22:25.075Z,97988.91
2022-12-24T03:24:51.636Z,97994.22
2022-12-24T03:27:18.159Z,98015.09
2022-12-24T03:29:44.982Z,98013.41
2022-12-24T03:32:11.502Z,98013.06
2022-12-24T03:34:38.050Z,98011.75
2022-12-24T03:37:04.665Z,97994.53
2022-12-24T03:39:31.176Z,97998.56
2022-12-24T03:41:57.681Z,98006.81
2022-12-24T03:44:24.181Z,98009.44
2022-12-24T03:46:50.687Z,98034.41
2022-12-24T03:49:17.201Z,98032.63
2022-12-24T03:51:43.805Z,98032.78
2022-12-24T03:54:10.345Z,98034.25
2022-12-24T03:56:36.844Z,98024.34
2022-12-24T03:59:03.430Z,98015.75
2022-12-24T04:01:30.645Z,98012.09
2022-12-24T04:03:57.263Z,98024.31
2022-12-24T04:06:23.778Z,98019.88
2022-12-24T04:08:50.338Z,98021.19
2022-12-24T04:11:17.079Z,98024.34
2022-12-24T04:13:43.625Z,98032.63
2022-12-24T04:16:14.358Z,98047.16
2022-12-24T04:18:41.187Z,98042.19
2022-12-24T04:21:08.106Z,98036.09
2022-12-24T04:23:35.168Z,98030.13
2022-12-24T04:26:02.225Z,98047.50
2022-12-24T04:28:29.188Z,98042.88
2022-12-24T04:31:02.365Z,98050.47
2022-12-24T04:33:28.897Z,98042.84
2022-12-24T04:35:57.524Z,98046.81
2022-12-24T04:38:24.198Z,98036.38
2022-12-24T04:40:57.931Z,98040.72
2022-12-24T04:43:24.458Z,98049.31
2022-12-24T04:45:51.046Z,98044.66
2022-12-24T04:48:17.584Z,98053.09
2022-12-24T04:50:44.079Z,98050.47
2022-12-24T04:53:10.624Z,98044.00
2022-12-24T04:55:37.138Z,98071.63
2022-12-24T04:58:03.671Z,98049.47
2022-12-24T05:00:30.220Z,98056.91
2022-12-24T05:02:56.780Z,98056.09
2022-12-24T05:05:23.394Z,98059.38
2022-12-24T05:07:49.961Z,98068.97
2022-12-24T05:10:16.481Z,98054.41
2022-12-24T05:12:43.048Z,98050.13
2022-12-24T05:15:09.700Z,98039.81
2022-12-24T05:17:36.265Z,98069.19
2022-12-24T05:20:02.925Z,98075.53
2022-12-24T05:22:47.951Z,98070.59
2022-12-24T05:25:33.276Z,98064.78
2022-12-24T05:27:59.794Z,98070.53
2022-12-24T05:30:26.470Z,98074.00
2022-12-24T05:32:53.030Z,98076.69
2022-12-24T05:35:19.574Z,98077.19
2022-12-24T05:37:46.100Z,98079.47
2022-12-24T05:40:12.621Z,98075.47
2022-12-24T05:42:39.138Z,98069.66
2022-12-24T05:45:05.851Z,98076.41
2022-12-24T05:47:34.704Z,98070.94
2022-12-24T05:50:03.668Z,98065.47
2022-12-24T05:52:30.189Z,98060.38
2022-12-24T05:54:56.718Z,98063.16
2022-12-24T05:57:23.226Z,98074.69
2022-12-24T05:59:49.966Z,98077.78
2022-12-24T06:02:16.604Z,98084.72
2022-12-24T06:04:43.180Z,98081.66
2022-12-24T06:07:09.712Z,98077.03
2022-12-24T06:09:36.207Z,98075.47
2022-12-24T06:12:02.733Z,98090.31
2022-12-24T06:14:29.244Z,98099.75
2022-12-24T06:16:55.866Z,98091.97
2022-12-24T06:19:22.383Z,98090.31
2022-12-24T06:21:48.909Z,98097.56
2022-12-24T06:24:16.031Z,98090.53
2022-12-24T06:26:42.626Z,98101.97
2022-12-24T06:29:09.400Z,98105.75
2022-12-24T06:31:35.975Z,98101.28
2022-12-24T06:34:02.496Z,98110.56
2022-12-24T06:36:29.006Z,98104.56
2022-12-24T06:38:55.614Z,98118.13
2022-12-24T06:41:22.475Z,98120.00
2022-12-24T06:43:50.344Z,98116.50
2022-12-24T06:46:17.314Z,98114.41
2022-12-24T06:48:44.846Z,98130.25
2022-12-24T06:51:11.658Z,98127.56
2022-12-24T06:53:38.157Z,98138.53
2022-12-24T06:56:05.276Z,98144.13
2022-12-24T06:58:31.796Z,98145.09
2022-12-24T07:00:58.279Z,98142.78
2022-12-24T07:03:24.896Z,98155.72
2022-12-24T07:05:51.496Z,98147.78
2022-12-24T07:08:18.050Z,98153.38
2022-12-24T07:10:50.572Z,98153.38
2022-12-24T07:13:20.519Z,98157.47
2022-12-24T07:15:47.080Z,98157.72
2022-12-24T07:18:13.644Z,98157.03
2022-12-24T07:20:40.162Z,98168.88
2022-12-24T07:23:06.662Z,98174.16
2022-12-24T07:25:33.170Z,98179.75
2022-12-24T07:27:59.707Z,98174.09
2022-12-24T07:30:26.246Z,98185.69
2022-12-24T07:32:52.859Z,98190.22
2022-12-24T07:35:19.390Z,98190.97
2022-12-24T07:37:45.937Z,98193.75
2022-12-24T07:40:12.547Z,98193.97
2022-12-24T07:42:39.134Z,98192.28
2022-12-24T07:45:05.907Z,98197.38
2022-12-24T07:47:32.487Z,98198.19
2022-12-24T07:49:58.999Z,98204.25
2022-12-24T07:52:25.519Z,98199.47
2022-12-24T07:54:52.093Z,98201.69
2022-12-24T07:57:18.811Z,98201.97
2022-12-24T07:59:45.348Z,98201.53
2022-12-24T08:02:17.885Z,98204.00
2022-12-24T08:04:45.008Z,98195.03
2022-12-24T08:07:11.542Z,98186.50
2022-12-24T08:09:38.572Z,98201.81
2022-12-24T08:12:05.218Z,98200.97
2022-12-24T08:14:32.208Z,98199.03
2022-12-24T08:16:58.774Z,98208.69
2022-12-24T08:19:25.393Z,98209.28
2022-12-24T08:21:52.047Z,98221.53
2022-12-24T08:24:18.764Z,98215.94
2022-12-24T08:26:45.318Z,98222.13
2022-12-24T08:29:12.047Z,98221.81
2022-12-24T08:31:38.709Z,98225.03
2022-12-24T08:34:06.109Z,98232.41
2022-12-24T08:36:32.996Z,98234.44
2022-12-24T08:39:03.557Z,98244.59
2022-12-24T08:41:33.345Z,98245.75
2022-12-24T08:43:59.872Z,98254.03
2022-12-24T08:46:26.584Z,98255.00
2022-12-24T08:48:53.194Z,98255.22
2022-12-24T08:51:19.828Z,98253.50
2022-12-24T08:53:47.061Z,98255.47
2022-12-24T08:56:13.888Z,98256.22
2022-12-24T08:58:40.539Z,98266.81
2022-12-24T09:01:10.456Z,98259.47
2022-12-24T09:03:37.222Z,98257.13
2022-12-24T09:06:04.312Z,98257.81
2022-12-24T09:08:31.429Z,98264.75
2022-12-24T09:11:03.416Z,98262.56
2022-12-24T09:13:29.959Z,98270.03
2022-12-24T09:15:56.463Z,98276.66
2022-12-24T09:18:22.995Z,98274.91
2022-12-24T09:20:53.857Z,98279.75
2022-12-24T09:23:23.540Z,98285.81
2022-12-24T09:25:50.216Z,98281.09
2022-12-24T09:28:17.360Z,98291.22
2022-12-24T09:30:44.186Z,98289.09
2022-12-24T09:33:10.777Z,98299.09
2022-12-24T09:35:42.814Z,98294.84
2022-12-24T09:38:09.399Z,98306.84
2022-12-24T09:40:36.881Z,98305.25
2022-12-24T09:43:04.989Z,98307.63
2022-12-24T09:45:32.161Z,98315.63
2022-12-24T09:47:59.969Z,98317.28
2022-12-24T09:50:29.316Z,98317.13
2022-12-24T09:52:56.045Z,98311.72
2022-12-24T09:55:30.085Z,98308.72
2022-12-24T09:57:56.789Z,98305.59
2022-12-24T10:00:24.915Z,98310.22
2022-12-24T10:02:51.613Z,98302.94
2022-12-24T10:05:18.757Z,98302.97
2022-12-24T10:07:50.201Z,98298.31
2022-12-24T10:10:16.762Z,98299.78
2022-12-24T10:12:50.058Z,98300.44
2022-12-24T10:15:22.886Z,98292.16
2022-12-24T10:17:59.384Z,98297.59
2022-12-24T10:20:35.169Z,98305.38
2022-12-24T10:23:01.649Z,98305.69
2022-12-24T10:25:37.893Z,98311.00
2022-12-24T10:28:06.113Z,98306.03
2022-12-24T10:30:32.671Z,98314.00
2022-12-24T10:32:59.267Z,98314.03
2022-12-24T10:35:26.914Z,98319.53
2022-12-24T10:37:53.571Z,98313.38
2022-12-24T10:40:28.768Z,98311.38
2022-12-24T10:42:55.311Z,98322.66
2022-12-24T10:45:22.434Z,98327.94
2022-12-24T10:47:49.943Z,98319.84
2022-12-24T10:50:19.611Z,98322.78
2022-12-24T10:52:46.376Z,98328.25
2022-12-24T10:55:18.935Z,98332.56
2022-12-24T10:57:46.443Z,98333.06
2022-12-24T11:00:20.215Z,98330.44
2022-12-24T11:02:54.817Z,98336.44
2022-12-24T11:05:32.084Z,98335.75
2022-12-24T11:08:06.820Z,98330.09
2022-12-24T11:10:33.858Z,98326.28
2022-12-24T11:13:35.612Z,98324.59
2022-12-24T11:15:46.983Z,98316.78
2022-12-24T11:18:13.920Z,98320.09
2022-12-24T11:20:40.546Z,98320.56
2022-12-24T11:23:07.151Z,98323.72
2022-12-24T11:25:41.835Z,98321.09
2022-12-24T11:28:12.688Z,98320.25
2022-12-24T11:30:39.240Z,98327.22
2022-12-24T11:33:11.603Z,98322.91
2022-12-24T11:35:46.930Z,98322.25
2022-12-24T11:38:17.455Z,98325.88
2022-12-24T11:40:44.496Z,98335.25
2022-12-24T11:43:16.073Z,98328.13
2022-12-24T11:45:48.350Z,98323.00
2022-12-24T11:48:34.029Z,98322.16
2022-12-24T11:51:04.288Z,98315.19
2022-12-24T11:53:33.686Z,98317.03
2022-12-24T11:56:00.330Z,98325.81
2022-12-24T11:58:26.900Z,98331.47
2022-12-24T12:00:55.928Z,98331.94
2022-12-24T12:03:36.856Z,98330.91
2022-12-24T12:06:04.170Z,98329.75
2022-12-24T12:08:34.386Z,98334.22
2022-12-24T12:11:00.937Z,98320.63
2022-12-24T12:13:33.175Z,98318.81
2022-12-24T12:16:05.188Z,98313.84
2022-12-24T12:18:36.026Z,98312.34
2022-12-24T12:21:05.083Z,98316.00
2022-12-24T12:23:33.960Z,98311.41
2022-12-24T12:26:07.177Z,98315.22
2022-12-24T12:28:47.806Z,98316.69
2022-12-24T12:31:20.424Z,98321.16
2022-12-24T12:33:48.091Z,98331.56
2022-12-24T12:36:16.060Z,98333.72
2022-12-24T12:38:42.617Z,98338.84
2022-12-24T12:41:09.091Z,98334.56
2022-12-24T12:43:48.719Z,98338.22
2022-12-24T12:46:35.900Z,98342.88
2022-12-24T12:49:15.720Z,98353.81
2022-12-24T12:51:42.146Z,98345.19
2022-12-24T12:54:13.550Z,98338.41
2022-12-24T12:56:40.173Z,98343.53
2022-12-24T12:59:06.647Z,98335.94
2022-12-24T13:01:56.521Z,98335.44
2022-12-24T13:04:41.966Z,98328.94
2022-12-24T13:07:28.565Z,98340.06
2022-12-24T13:10:15.101Z,98342.72
2022-12-24T13:12:54.435Z,98330.97
2022-12-24T13:15:27.701Z,98324.16
2022-12-24T13:18:11.051Z,98326.63
2022-12-24T13:20:40.641Z,98330.28
2022-12-24T13:23:20.485Z,98341.38
2022-12-24T13:25:47.959Z,98342.88
2022-12-24T13:28:21.054Z,98337.09
2022-12-24T13:30:48.230Z,98348.19
2022-12-24T13:33:35.109Z,98345.72
2022-12-24T13:36:02.447Z,98346.53
2022-12-24T13:38:28.913Z,98346.69
2022-12-24T13:40:55.895Z,98350.31
2022-12-24T13:43:22.402Z,98343.66
2022-12-24T13:45:50.098Z,98343.81
2022-12-24T13:48:16.584Z,98348.75
2022-12-24T13:50:50.383Z,98340.50
2022-12-24T13:53:25.980Z,98346.44
2022-12-24T13:56:01.968Z,98351.41
2022-12-24T13:58:29.003Z,98337.53
2022-12-24T14:00:58.534Z,98333.03
2022-12-24T14:03:27.120Z,98333.16
2022-12-24T14:05:55.298Z,98325.53
2022-12-24T14:08:25.698Z,98320.72
2022-12-24T14:10:58.374Z,98326.66
2022-12-24T14:13:40.017Z,98325.16
2022-12-24T14:16:19.164Z,98324.63
2022-12-24T14:18:46.980Z,98318.66
2022-12-24T14:21:24.443Z,98324.25
2022-12-24T14:24:01.690Z,98317.47
2022-12-24T14:26:29.288Z,98311.47
2022-12-24T14:28:57.047Z,98309.94
2022-12-24T14:31:23.718Z,98308.28
2022-12-24T14:33:50.365Z,98305.50
2022-12-24T14:36:19.493Z,98305.16
2022-12-24T14:38:48.690Z,98325.00
2022-12-24T14:41:26.864Z,98316.72
2022-12-24T14:44:05.601Z,98320.75
2022-12-24T14:46:32.091Z,98310.84
2022-12-24T14:49:21.927Z,98302.38
2022-12-24T14:51:56.043Z,98301.91
2022-12-24T14:54:23.589Z,98312.19
2022-12-24T14:57:06.853Z,98317.09
2022-12-24T14:59:40.725Z,98324.84
2022-12-24T15:02:26.113Z,98327.09
2022-12-24T15:05:05.124Z,98334.78
2022-12-24T15:07:33.299Z,98332.06
2022-12-24T15:10:00.427Z,98329.88
2022-12-24T15:12:26.963Z,98330.44
2022-12-24T15:14:53.541Z,98335.28
2022-12-24T15:17:20.075Z,98331.88
2022-12-24T15:19:48.001Z,98339.06
2022-12-24T15:22:23.021Z,98339.75
2022-12-24T15:24:50.116Z,98338.03
2022-12-24T15:27:17.955Z,98336.19
2022-12-24T15:29:45.492Z,98340.34
2022-12-24T15:32:16.091Z,98340.72
2022-12-24T15:34:44.212Z,98356.22
2022-12-24T15:37:10.888Z,98362.31
2022-12-24T15:39:39.378Z,98359.22
2022-12-24T15:42:16.055Z,98356.44
2022-12-24T15:44:44.391Z,98364.44
2022-12-24T15:47:18.438Z,98373.44
2022-12-24T15:49:56.124Z,98371.75
2022-12-24T15:52:26.224Z,98379.16
2022-12-24T15:54:57.665Z,98380.31
2022-12-24T15:57:28.745Z,98380.53
2022-12-24T15:59:56.059Z,98383.31
2022-12-24T16:02:40.238Z,98388.22
2022-12-24T16:05:22.641Z,98383.25
2022-12-24T16:08:08.897Z,98380.09
2022-12-24T16:10:36.380Z,98376.53
2022-12-24T16:13:07.544Z,98381.75
2022-12-24T16:15:34.151Z,98387.03
2022-12-24T16:18:08.362Z,98375.31
2022-12-24T16:20:41.036Z,98373.38
2022-12-24T16:23:15.111Z,98371.88
2022-12-24T16:30:39.293Z,98380.53
2022-12-24T16:33:06.715Z,98383.41
2022-12-24T16:35:38.426Z,98380.09
2022-12-24T16:38:05.011Z,98386.78
2022-12-24T16:40:31.684Z,98389.75
2022-12-24T16:43:17.192Z,98380.69
2022-12-24T16:45:44.295Z,98390.72
2022-12-24T16:48:11.281Z,98399.25
2022-12-24T16:50:37.829Z,98403.34
2022-12-24T16:53:04.347Z,98405.66
2022-12-24T16:55:30.926Z,98409.31
2022-12-24T16:57:57.466Z,98415.03
2022-12-24T17:00:25.713Z,98422.53
2022-12-24T17:02:52.447Z,98415.81
2022-12-24T17:05:19.109Z,98414.03
2022-12-24T17:07:45.622Z,98404.72
2022-12-24T17:10:12.917Z,98415.19
2022-12-24T17:12:39.454Z,98411.84
2022-12-24T17:15:06.238Z,98410.81
2022-12-24T17:17:32.910Z,98420.16
2022-12-24T17:19:59.492Z,98421.47
2022-12-24T17:22:27.776Z,98417.06
2022-12-24T17:24:54.743Z,98420.34
2022-12-24T17:27:21.464Z,98413.41
2022-12-24T17:29:48.024Z,98419.78
2022-12-24T17:32:14.554Z,98430.56
2022-12-24T17:34:41.035Z,98426.22
2022-12-24T17:37:07.616Z,98430.00
2022-12-24T17:39:34.164Z,98429.59
2022-12-24T17:42:00.754Z,98438.91
2022-12-24T17:44:27.268Z,98439.59
2022-12-24T17:46:53.901Z,98436.34
2022-12-24T17:49:20.477Z,98438.91
2022-12-24T17:51:47.000Z,98447.22
2022-12-24T17:54:13.634Z,98453.50
2022-12-24T17:56:40.236Z,98447.22
2022-12-24T17:59:06.759Z,98449.72
2022-12-24T18:01:33.439Z,98450.38
2022-12-24T18:04:00.382Z,98449.03
2022-12-24T18:06:27.204Z,98448.78
2022-12-24T18:08:53.879Z,98449.47
2022-12-24T18:11:25.016Z,98455.06
2022-12-24T18:13:51.649Z,98451.91
2022-12-24T18:16:25.398Z,98448.72
2022-12-24T18:18:52.156Z,98446.38
2022-12-24T18:21:19.628Z,98442.75
2022-12-24T18:23:46.749Z,98438.44
2022-12-24T18:26:13.677Z,98437.31
2022-12-24T18:28:40.372Z,98436.63
2022-12-24T18:31:09.348Z,98438.16
2022-12-24T18:33:36.064Z,98446.00
2022-12-24T18:36:02.850Z,98439.59
2022-12-24T18:38:29.438Z,98442.00
2022-12-24T18:40:55.943Z,98443.66
2022-12-24T18:43:22.859Z,98440.28
2022-12-24T18:45:49.388Z,98435.19
2022-12-24T18:48:15.879Z,98436.88
2022-12-24T18:50:42.577Z,98441.63
2022-12-24T18:53:09.176Z,98445.69
2022-12-24T18:55:36.241Z,98441.22
2022-12-24T18:58:02.876Z,98442.75
2022-12-24T19:00:29.609Z,98435.44
2022-12-24T19:02:56.265Z,98437.63
2022-12-24T19:05:22.849Z,98430.06
2022-12-24T19:07:49.403Z,98434.75
2022-12-24T19:10:16.758Z,98435.25
2022-12-24T19:12:43.300Z,98446.03
2022-12-24T19:15:09.986Z,98447.06
2022-12-24T19:17:36.565Z,98452.75
2022-12-24T19:20:03.186Z,98438.38
2022-12-24T19:22:29.778Z,98431.13
2022-12-24T19:24:56.277Z,98436.41
2022-12-24T19:27:22.811Z,98438.53
2022-12-24T19:29:49.375Z,98435.72
2022-12-24T19:32:15.909Z,98440.38
2022-12-24T19:34:42.639Z,98446.53
2022-12-24T19:37:09.165Z,98445.31
2022-12-24T19:39:35.699Z,98435.72
2022-12-24T19:42:02.277Z,98440.69
2022-12-24T19:44:28.798Z,98436.94
2022-12-24T19:46:55.323Z,98427.22
2022-12-24T19:49:21.839Z,98433.16
2022-12-24T19:51:48.322Z,98441.28
2022-12-24T19:54:18.856Z,98445.06
2022-12-24T19:56:45.765Z,98447.16
2022-12-24T19:59:12.278Z,98457.47
2022-12-24T20:01:38.965Z,98470.84
2022-12-24T20:04:06.553Z,98483.75
2022-12-24T20:06:33.823Z,98483.69
2022-12-24T20:09:07.600Z,98494.56
2022-12-24T20:11:34.166Z,98500.47
2022-12-24T20:14:01.355Z,98501.47
2022-12-24T20:16:29.448Z,98503.16
2022-12-24T20:18:57.013Z,98506.88
2022-12-24T20:21:23.791Z,98509.28
2022-12-24T20:23:50.708Z,98503.00
2022-12-24T20:26:18.173Z,98506.78
2022-12-24T20:28:44.852Z,98505.44
2022-12-24T20:31:11.771Z,98501.28
2022-12-24T20:33:38.697Z,98502.03
2022-12-24T20:36:05.753Z,98504.88
2022-12-24T20:38:32.313Z,98496.16
2022-12-24T20:40:58.978Z,98494.66
2022-12-24T20:43:27.337Z,98500.41
2022-12-24T20:45:57.343Z,98496.78
2022-12-24T20:48:24.063Z,98498.59
2022-12-24T20:50:50.941Z,98494.81
2022-12-24T20:53:18.166Z,98502.59
2022-12-24T20:55:44.745Z,98510.41
2022-12-24T20:58:12.448Z,98509.47
2022-12-24T21:00:39.123Z,98515.31
2022-12-24T21:03:05.739Z,98511.97
2022-12-24T21:05:32.277Z,98515.47
2022-12-24T21:07:58.785Z,98508.50
2022-12-24T21:10:30.712Z,98506.31
2022-12-24T21:13:00.496Z,98502.38
2022-12-24T21:15:33.525Z,98496.34
2022-12-24T21:18:00.163Z,98502.63
2022-12-24T21:20:30.910Z,98495.81
2022-12-24T21:23:01.149Z,98496.28
2022-12-24T21:25:27.967Z,98503.00
2022-12-24T21:27:57.515Z,98507.38
2022-12-24T21:30:24.431Z,98510.47
2022-12-24T21:32:51.030Z,98522.25
2022-12-24T21:35:17.585Z,98520.75
2022-12-24T21:37:44.095Z,98525.53
2022-12-24T21:40:10.863Z,98530.72
2022-12-24T21:42:37.424Z,98539.19
2022-12-24T21:45:04.690Z,98531.47
2022-12-24T21:47:31.235Z,98536.69
2022-12-24T21:50:16.131Z,98537.75
2022-12-24T21:52:42.741Z,98537.75
2022-12-24T21:55:09.633Z,98539.25
2022-12-24T21:57:54.852Z,98550.16
2022-12-24T22:00:21.622Z,98557.66
2022-12-24T22:02:50.284Z,98554.06
2022-12-24T22:05:17.039Z,98551.75
2022-12-24T22:08:02.289Z,98551.59
2022-12-24T22:10:47.245Z,98549.78
2022-12-24T22:13:13.782Z,98546.44
2022-12-24T22:15:47.395Z,98544.84
2022-12-24T22:18:15.884Z,98537.72
2022-12-24T22:20:42.767Z,98535.06
2022-12-24T22:23:09.305Z,98524.69
2022-12-24T22:25:36.661Z,98505.66
2022-12-24T22:28:03.452Z,98504.44
2022-12-24T22:30:30.008Z,98502.78
2022-12-24T22:32:57.323Z,98495.53
2022-12-24T22:35:23.908Z,98485.59
2022-12-24T22:37:54.565Z,98483.25
2022-12-24T22:40:28.062Z,98486.53
2022-12-24T22:42:54.815Z,98480.91
2022-12-24T22:45:22.566Z,98481.75
2022-12-24T22:47:49.659Z,98473.44
2022-12-24T22:50:16.411Z,98476.75
2022-12-24T22:52:43.348Z,98479.69
2022-12-24T22:55:09.894Z,98473.50
2022-12-24T22:57:36.606Z,98465.31
2022-12-24T23:00:06.215Z,98461.28
2022-12-24T23:02:32.922Z,98475.44
2022-12-24T23:04:59.611Z,98469.66
2022-12-24T23:07:26.341Z,98468.53
2022-12-24T23:09:52.866Z,98469.44
2022-12-24T23:12:39.347Z,98476.47
2022-12-24T23:15:06.145Z,98472.06
2022-12-24T23:17:32.647Z,98477.44
2022-12-24T23:20:00.744Z,98481.53
2022-12-24T23:22:27.464Z,98479.28
2022-12-24T23:24:54.157Z,98474.13
2022-12-24T23:27:20.663Z,98478.19
2022-12-24T23:29:47.435Z,98475.09
2022-12-24T23:32:14.074Z,98467.44
2022-12-24T23:34:40.570Z,98471.91
2022-12-24T23:37:07.813Z,98469.69
2022-12-24T23:39:34.299Z,98463.16
2022-12-24T23:42:00.807Z,98471.88
2022-12-24T23:44:32.248Z,98473.44
2022-12-24T23:46:59.442Z,98469.53
2022-12-24T23:49:26.738Z,98472.50
2022-12-24T23:51:53.264Z,98464.94
2022-12-24T23:54:19.797Z,98450.66
2022-12-24T23:56:46.338Z,98456.06
2022-12-24T23:59:12.868Z,98458.41
